Time;durP1;ratioP1;P1;durP2;ratioP2;P2;SDS_P1;SDS_P2;PMS_P1;PMS_P2;Temp;Humidity;BMP_temperature;BMP_pressure;BME280_temperature;BME280_humidity;BME280_pressure;Samples;Min_cycle;Max_cycle;Signal;HPM_P1;HPM_P2
2022/06/22 00:00:37;;;;;;;4.90;3.80;;;;;;;15.19;64.22;99754.63;10455090;28;20036;-69
2022/06/22 00:05:47;;;;;;;4.38;3.28;;;;;;;15.38;64.06;99766.75;10454999;28;20457;-69
2022/06/22 00:10:53;;;;;;;4.55;3.00;;;;;;;15.34;63.77;99765.22;10455542;28;20386;-69
2022/06/22 00:16:01;;;;;;;4.70;3.35;;;;;;;15.03;65.14;99766.03;10453743;28;20048;-69
2022/06/22 00:21:26;;;;;;;5.93;3.58;;;;;;;14.90;65.46;99751.75;10454689;28;20056;-69
2022/06/22 00:26:34;;;;;;;6.55;3.97;;;;;;;15.17;64.30;99751.19;10446293;28;20049;-69
2022/06/22 00:31:43;;;;;;;4.10;3.30;;;;;;;15.24;64.39;99752.56;10460571;28;20080;-69
2022/06/22 00:36:55;;;;;;;6.45;4.07;;;;;;;15.00;65.00;99745.03;10461118;28;20080;-69
2022/06/22 00:42:14;;;;;;;4.57;4.05;;;;;;;14.92;65.46;99741.97;10461975;28;20041;-69
2022/06/22 00:47:54;;;;;;;5.00;4.18;;;;;;;15.06;64.77;99731.47;10461726;28;20131;-69
2022/06/22 00:53:11;;;;;;;4.95;3.90;;;;;;;15.01;64.30;99728.22;10461161;28;20044;-69
2022/06/22 00:58:24;;;;;;;4.63;3.60;;;;;;;14.97;63.79;99728.47;10459955;28;20045;-69
2022/06/22 01:03:51;;;;;;;4.78;3.20;;;;;;;15.12;63.42;99709.09;10460058;28;20037;-69
2022/06/22 01:09:38;;;;;;;4.38;2.38;;;;;;;15.47;60.96;99706.25;10458695;28;20064;-69
2022/06/22 01:15:12;;;;;;;4.00;2.15;;;;;;;15.35;61.43;99697.22;10445712;28;20059;-68
2022/06/22 01:20:43;;;;;;;3.35;2.13;;;;;;;15.12;63.02;99694.06;10460027;28;20510;-70
2022/06/22 01:26:05;;;;;;;1.67;1.52;;;;;;;15.39;61.13;99677.56;10432233;28;20061;-69
2022/06/22 01:31:13;;;;;;;2.80;1.80;;;;;;;15.04;62.99;99679.53;10459795;28;20044;-69
2022/06/22 01:36:23;;;;;;;3.58;2.28;;;;;;;14.91;63.22;99671.44;10460072;28;20049;-69
2022/06/22 01:41:46;;;;;;;2.83;1.80;;;;;;;14.92;62.84;99673.16;10458858;28;20608;-68
2022/06/22 01:46:50;;;;;;;2.83;1.60;;;;;;;14.97;62.60;99680.84;10459591;28;20051;-69
2022/06/22 01:51:58;;;;;;;2.53;1.60;;;;;;;14.99;62.40;99660.41;10458594;28;20483;-69
2022/06/22 01:57:12;;;;;;;1.65;1.30;;;;;;;14.91;62.70;99676.72;10458955;28;20063;-69
2022/06/22 02:02:19;;;;;;;3.78;1.90;;;;;;;14.73;64.37;99678.59;10458820;28;20052;-69
2022/06/22 02:07:44;;;;;;;1.98;1.23;;;;;;;14.93;63.47;99674.00;10458588;28;20045;-69
2022/06/22 02:13:12;;;;;;;1.67;1.15;;;;;;;14.94;62.74;99678.34;10458594;28;20045;-69
2022/06/22 02:18:20;;;;;;;1.63;1.23;;;;;;;15.09;61.79;99673.03;10426508;28;20139;-69
2022/06/22 02:23:28;;;;;;;1.85;1.20;;;;;;;14.91;62.48;99670.56;10458117;28;20052;-69
2022/06/22 02:28:30;;;;;;;2.25;1.38;;;;;;;14.89;62.92;99683.91;10456107;28;20048;-69
2022/06/22 02:33:35;;;;;;;2.20;1.10;;;;;;;15.09;61.94;99675.69;10457373;28;20080;-69
2022/06/22 02:38:37;;;;;;;2.40;1.10;;;;;;;15.10;61.89;99669.47;10457652;28;20045;-69
2022/06/22 02:49:06;;;;;;;4.18;1.20;;;;;;;15.17;61.17;99667.31;10457225;28;20544;-69
2022/06/22 02:54:33;;;;;;;2.28;1.20;;;;;;;15.20;61.19;99653.06;10456605;28;20071;-69
2022/06/22 02:59:34;;;;;;;2.33;1.20;;;;;;;15.46;60.13;99664.81;10455167;28;20048;-69
2022/06/22 03:04:40;;;;;;;2.92;1.20;;;;;;;15.37;60.65;99655.63;10454786;28;20053;-69
2022/06/22 03:09:42;;;;;;;2.60;0.90;;;;;;;15.45;60.01;99647.19;10457504;28;20041;-69
2022/06/22 03:14:55;;;;;;;2.92;1.20;;;;;;;15.48;60.18;99639.94;10456054;28;20033;-69
2022/06/22 03:20:04;;;;;;;2.15;1.10;;;;;;;15.53;59.93;99637.03;10456000;28;20053;-69
2022/06/22 03:25:15;;;;;;;1.98;1.25;;;;;;;15.60;59.73;99655.13;10454686;28;20433;-69
2022/06/22 03:30:25;;;;;;;2.60;1.15;;;;;;;15.69;59.70;99653.75;10455516;28;20041;-69
2022/06/22 03:35:34;;;;;;;3.13;1.25;;;;;;;15.78;59.71;99655.88;10456239;28;20387;-69
2022/06/22 03:40:45;;;;;;;5.18;1.23;;;;;;;15.82;59.49;99651.25;10455644;28;20041;-69
2022/06/22 03:45:53;;;;;;;2.60;1.40;;;;;;;15.78;59.83;99647.91;10455428;28;20053;-69
2022/06/22 03:51:03;;;;;;;2.00;1.48;;;;;;;15.70;60.60;99644.88;10456070;28;20090;-69
2022/06/22 03:56:10;;;;;;;1.80;1.20;;;;;;;15.84;59.46;99639.59;10455367;28;20048;-69
2022/06/22 04:01:13;;;;;;;3.58;1.30;;;;;;;15.67;60.30;99628.28;10437815;28;20041;-69
2022/06/22 04:06:40;;;;;;;1.45;0.98;;;;;;;15.88;59.46;99637.63;10462932;28;20040;-69
2022/06/22 04:11:50;;;;;;;3.63;1.50;;;;;;;15.93;59.89;99635.53;10461711;28;20072;-69
2022/06/22 04:16:58;;;;;;;2.25;1.25;;;;;;;15.93;60.42;99640.84;10462968;28;20414;-69
2022/06/22 04:22:13;;;;;;;4.10;2.00;;;;;;;16.08;60.36;99645.22;10464232;28;20040;-69
2022/06/22 04:27:37;;;;;;;3.35;1.65;;;;;;;15.94;61.54;99637.28;10462659;28;20041;-69
2022/06/22 04:33:00;;;;;;;5.20;1.25;;;;;;;16.07;60.05;99634.69;10463057;28;20505;-69
2022/06/22 04:38:10;;;;;;;3.78;1.67;;;;;;;16.21;59.50;99639.19;10463079;28;20051;-69
2022/06/22 04:43:12;;;;;;;1.90;1.35;;;;;;;16.20;60.20;99640.13;10462510;28;20067;-68
2022/06/22 04:48:13;;;;;;;2.88;1.20;;;;;;;16.50;58.29;99632.06;10460172;28;20056;-69
2022/06/22 04:53:22;;;;;;;2.33;1.25;;;;;;;16.49;58.83;99623.25;10461315;28;20045;-69
2022/06/22 04:58:43;;;;;;;3.17;1.25;;;;;;;16.52;58.99;99628.38;10503563;22;20044;-72
2022/06/22 05:03:45;;;;;;;1.83;1.15;;;;;;;16.56;58.64;99626.41;10487527;28;20071;-72
2022/06/22 05:09:26;;;;;;;2.05;1.42;;;;;;;16.67;58.25;99629.22;10507101;28;20490;-72
2022/06/22 05:14:31;;;;;;;6.15;1.52;;;;;;;16.79;58.73;99630.28;10455359;28;20056;-72
2022/06/22 05:19:40;;;;;;;2.85;1.30;;;;;;;17.11;57.07;99621.06;10507271;28;20053;-71
2022/06/22 05:24:50;;;;;;;3.88;1.42;;;;;;;17.39;56.26;99627.22;10507506;28;20098;-72
2022/06/22 05:30:00;;;;;;;4.30;1.75;;;;;;;17.47;55.73;99632.88;10506118;28;20094;-73
2022/06/22 05:35:15;;;;;;;3.30;1.30;;;;;;;17.95;55.17;99638.53;10486254;28;20494;-71
2022/06/22 05:40:20;;;;;;;4.03;1.20;;;;;;;18.09;54.28;99635.75;10506252;28;20045;-71
2022/06/22 05:45:36;;;;;;;2.47;1.23;;;;;;;17.99;54.08;99634.72;10504661;28;20033;-70
2022/06/22 05:50:43;;;;;;;1.38;0.73;;;;;;;18.14;54.50;99638.09;10502937;28;20093;-71
2022/06/22 05:56:09;;;;;;;3.38;1.05;;;;;;;18.38;52.64;99630.25;10484479;28;20045;-71
2022/06/22 06:01:23;;;;;;;1.65;1.00;;;;;;;18.24;55.41;99628.56;10502242;28;20509;-71
2022/06/22 06:06:37;;;;;;;2.97;1.10;;;;;;;18.55;53.45;99616.59;10486951;28;20044;-70
2022/06/22 06:11:46;;;;;;;2.83;0.93;;;;;;;18.89;52.58;99617.69;10504020;28;20048;-70
2022/06/22 06:16:52;;;;;;;4.00;1.20;;;;;;;19.56;51.38;99622.47;10502500;28;20041;-71
2022/06/22 06:21:58;;;;;;;6.40;1.30;;;;;;;20.44;48.13;99623.78;10501369;28;20042;-70
2022/06/22 06:33:01;;;;;;;2.42;1.10;;;;;;;20.49;48.21;99638.47;10503836;28;20451;-70
2022/06/22 06:38:27;;;;;;;2.45;1.00;;;;;;;20.37;47.85;99629.59;10501451;28;20601;-71
2022/06/22 06:43:53;;;;;;;3.70;1.10;;;;;;;20.14;50.50;99635.88;10501849;28;20482;-71
2022/06/22 06:49:16;;;;;;;5.60;1.08;;;;;;;19.99;50.48;99637.91;10501028;28;20095;-72
2022/06/22 06:54:48;;;;;;;1.98;1.10;;;;;;;20.21;50.69;99642.44;10503124;28;20485;-72
2022/06/22 06:59:54;;;;;;;4.25;1.05;;;;;;;19.93;51.76;99642.91;10499259;28;20111;-72
2022/06/22 07:04:59;;;;;;;2.50;1.23;;;;;;;20.13;51.72;99636.84;10482008;28;20049;-72
2022/06/22 07:10:12;;;;;;;4.65;1.05;;;;;;;20.87;47.66;99631.91;10500037;28;20089;-72
2022/06/22 07:15:18;;;;;;;5.43;1.33;;;;;;;20.72;47.59;99630.44;10502576;28;20062;-72
2022/06/22 07:20:26;;;;;;;;;;;;;;;20.79;48.30;99637.84;10482688;28;20398;-73
2022/06/22 07:25:38;;;;;;;4.03;1.05;;;;;;;21.36;47.71;99623.41;10498499;28;20003;-72
2022/06/22 07:30:53;;;;;;;3.45;1.00;;;;;;;21.94;44.43;99620.34;10498236;28;20123;-73
2022/06/22 07:36:03;;;;;;;8.23;1.10;;;;;;;22.17;44.10;99626.41;10498776;28;20486;-72
2022/06/22 07:41:18;;;;;;;5.50;1.42;;;;;;;22.01;47.93;99616.16;10509965;28;20048;-73
2022/06/22 07:46:49;;;;;;;3.10;1.10;;;;;;;22.64;44.07;99610.69;10490994;28;20047;-73
2022/06/22 07:51:57;;;;;;;9.15;0.98;;;;;;;24.07;40.46;99622.69;10490036;28;20040;-73
2022/06/22 07:57:08;;;;;;;2.70;0.90;;;;;;;24.55;38.24;99613.66;10508532;28;20110;-73
2022/06/22 08:02:18;;;;;;;4.68;0.90;;;;;;;24.92;38.41;99616.28;10510223;28;20486;-73
2022/06/22 08:07:33;;;;;;;2.20;0.80;;;;;;;25.38;38.42;99590.22;10489880;28;20048;-74
2022/06/22 08:12:41;;;;;;;;;;;;;;;26.28;35.99;99594.44;10507717;28;20040;-74
2022/06/22 08:17:47;;;;;;;5.20;1.23;;;;;;;26.02;35.51;99593.59;10508003;28;20297;-74
2022/06/22 08:22:50;;;;;;;2.55;0.88;;;;;;;26.21;35.97;99581.75;10509121;28;20037;-74
2022/06/22 08:28:15;;;;;;;3.78;1.05;;;;;;;26.66;33.95;99582.34;10507647;28;20045;-74
2022/06/22 08:33:21;;;;;;;;;;;;;;;26.29;34.35;99585.34;10507106;28;20037;-74
2022/06/22 08:38:30;;;;;;;;;;;;;;;27.28;35.14;99581.19;10489526;28;20376;-74
2022/06/22 08:43:35;;;;;;;3.83;1.10;;;;;;;27.85;32.09;99567.72;10508072;28;19920;-74
2022/06/22 08:48:42;;;;;;;2.95;0.70;;;;;;;27.45;32.40;99573.91;10507542;28;20072;-74
2022/06/22 08:53:58;;;;;;;4.10;0.60;;;;;;;27.91;30.44;99577.81;10489082;28;20071;-73
2022/06/22 08:59:06;;;;;;;1.80;0.80;;;;;;;27.32;32.79;99569.03;10505725;28;20086;-73
2022/06/22 09:04:17;;;;;;;2.97;0.80;;;;;;;27.75;32.97;99569.72;10487414;28;20064;-73
2022/06/22 09:09:33;;;;;;;1.60;1.10;;;;;;;28.52;30.94;99565.50;10505743;28;20048;-73
2022/06/22 09:14:56;;;;;;;1.65;0.70;;;;;;;28.62;30.84;99568.00;10505341;28;20041;-72
2022/06/22 09:20:04;;;;;;;1.35;0.50;;;;;;;28.85;29.70;99568.88;10506008;28;20041;-73
2022/06/22 09:25:29;;;;;;;2.13;0.70;;;;;;;27.56;32.08;99569.03;10505601;28;20051;-73
2022/06/22 09:30:51;;;;;;;1.77;0.85;;;;;;;28.01;31.38;99575.75;10506125;28;20048;-72
2022/06/22 09:36:19;;;;;;;2.42;0.73;;;;;;;27.99;30.88;99579.66;10488259;28;20037;-72
2022/06/22 09:41:33;;;;;;;2.22;0.70;;;;;;;28.80;30.70;99586.66;10502806;28;20043;-72
2022/06/22 09:46:54;;;;;;;2.07;0.80;;;;;;;28.17;30.03;99604.63;10485183;28;20052;-71
2022/06/22 09:52:26;;;;;;;1.55;0.73;;;;;;;28.77;29.51;99589.72;10502705;28;20033;-71
2022/06/22 09:57:34;;;;;;;1.25;0.70;;;;;;;29.10;27.73;99604.78;10484737;28;20062;-72
2022/06/22 10:02:55;;;;;;;2.53;0.73;;;;;;;29.30;28.19;99590.78;10500976;28;20433;-72
2022/06/22 10:08:25;;;;;;;2.65;0.70;;;;;;;30.21;26.04;99584.44;10502116;28;20458;-72
2022/06/22 10:13:33;;;;;;;3.33;0.73;;;;;;;30.01;25.82;99580.53;10501268;28;20094;-72
2022/06/22 10:18:41;;;;;;;1.75;0.60;;;;;;;30.36;25.12;99579.84;10500740;28;20045;-72
2022/06/22 10:23:57;;;;;;;2.22;0.70;;;;;;;30.74;26.37;99568.06;10483519;28;20068;-73
2022/06/22 10:29:33;;;;;;;2.78;0.40;;;;;;;30.62;23.21;99560.38;10501152;28;20048;-72
2022/06/22 10:34:43;;;;;;;3.10;0.60;;;;;;;31.02;25.02;99555.44;10500772;28;20044;-72
2022/06/22 10:40:12;;;;;;;2.95;0.70;;;;;;;31.26;23.98;99564.25;10501337;28;20052;-72
2022/06/22 10:45:32;;;;;;;2.10;0.50;;;;;;;30.98;24.08;99564.16;10482694;28;20059;-72
2022/06/22 10:50:40;;;;;;;2.90;0.80;;;;;;;30.82;25.98;99562.53;10501069;28;20044;-72
2022/06/22 10:56:09;;;;;;;5.40;0.82;;;;;;;31.09;23.82;99564.50;10483587;28;20041;-72
2022/06/22 11:01:23;;;;;;;0.85;0.60;;;;;;;31.22;24.50;99574.66;10483041;22;20118;-71
2022/06/22 11:07:09;;;;;;;1.33;0.70;;;;;;;30.62;23.97;99568.50;10456419;28;20056;-72
2022/06/22 11:12:25;;;;;;;2.33;0.65;;;;;;;30.03;24.70;99570.38;10456521;28;20504;-71
2022/06/22 11:17:52;;;;;;;2.30;0.63;;;;;;;29.76;25.56;99572.69;10456349;28;20041;-71
2022/06/22 11:23:03;;;;;;;2.05;0.68;;;;;;;29.24;26.27;99561.75;10455865;28;20049;-72
2022/06/22 11:34:17;;;;;;;1.83;0.70;;;;;;;29.82;26.29;99552.13;10456256;28;20045;-71
2022/06/22 11:39:54;;;;;;;2.33;0.80;;;;;;;29.86;26.43;99550.72;10456673;28;20041;-71
2022/06/22 11:50:49;;;;;;;3.80;0.70;;;;;;;32.12;24.07;99554.97;10455757;28;20441;-71
2022/06/22 11:55:57;;;;;;;2.17;0.63;;;;;;;31.77;23.37;99539.63;10455816;28;20036;-71
2022/06/22 12:01:17;;;;;;;1.35;0.77;;;;;;;31.66;23.14;99543.75;10455679;28;20049;-71
2022/06/22 12:06:31;;;;;;;1.10;0.70;;;;;;;30.70;24.76;99540.44;10455984;28;20041;-71
2022/06/22 12:11:50;;;;;;;3.03;0.65;;;;;;;30.48;24.68;99546.84;10455928;28;20052;-71
2022/06/22 12:17:07;;;;;;;1.65;0.90;;;;;;;30.97;24.98;99541.59;10453766;28;20167;-71
2022/06/22 12:22:17;;;;;;;1.70;0.60;;;;;;;31.39;23.45;99531.84;10455578;28;20044;-72
2022/06/22 12:27:30;;;;;;;1.52;0.80;;;;;;;31.59;25.16;99537.41;10463479;28;20433;-72
2022/06/22 12:32:50;;;;;;;1.48;0.80;;;;;;;31.14;24.95;99534.91;10462883;28;20055;-72
2022/06/22 12:38:26;;;;;;;1.20;0.70;;;;;;;30.75;24.75;99527.16;10462155;28;20067;-71
2022/06/22 12:43:41;;;;;;;1.35;0.70;;;;;;;30.24;25.43;99535.28;10463200;28;20460;-71
2022/06/22 12:49:08;;;;;;;2.15;0.70;;;;;;;29.77;25.64;99530.16;10461033;28;20099;-72
2022/06/22 12:54:15;;;;;;;1.08;0.70;;;;;;;29.46;26.25;99530.25;10462709;28;20455;-71
2022/06/22 12:59:32;;;;;;;2.00;0.60;;;;;;;29.18;26.79;99528.13;10461464;28;20045;-72
2022/06/22 13:04:36;;;;;;;1.63;0.70;;;;;;;29.74;27.21;99508.84;10461753;28;20040;-72
2022/06/22 13:09:38;;;;;;;2.43;0.73;;;;;;;30.84;25.50;99507.03;10460919;28;20072;-71
2022/06/22 13:14:48;;;;;;;1.67;0.70;;;;;;;31.53;24.87;99503.72;10462433;28;20276;-71
2022/06/22 13:19:56;;;;;;;1.00;0.90;;;;;;;31.58;24.85;99498.53;10461323;28;20044;-71
2022/06/22 13:25:24;;;;;;;2.60;0.77;;;;;;;31.04;24.07;99487.41;10460766;28;20042;-70
2022/06/22 13:30:35;;;;;;;1.58;0.70;;;;;;;30.38;25.91;99491.03;10461094;28;20405;-73
2022/06/22 13:35:52;;;;;;;2.05;0.70;;;;;;;31.25;25.14;99479.22;10458090;28;20136;-72
2022/06/22 13:40:57;;;;;;;6.20;0.90;;;;;;;30.52;25.00;99483.88;10459090;28;20045;-72
2022/06/22 13:46:32;;;;;;;1.20;0.70;;;;;;;29.72;26.49;99479.25;10458931;28;20076;-71
2022/06/22 13:51:57;;;;;;;3.15;0.90;;;;;;;30.30;25.36;99469.44;10427281;28;20049;-70
2022/06/22 13:57:12;;;;;;;;;;;;;;;30.61;25.69;99460.22;10460882;28;20052;-69
2022/06/22 14:02:14;;;;;;;;;;;;;;;30.98;25.68;99463.72;10459536;28;19932;-70
2022/06/22 14:07:28;;;;;;;1.58;0.70;;;;;;;30.45;26.06;99457.72;10459594;28;19931;-71
2022/06/22 14:12:48;;;;;;;2.83;0.73;;;;;;;30.03;26.57;99456.56;10459225;28;20041;-72
2022/06/22 14:18:00;;;;;;;1.33;0.75;;;;;;;30.19;27.13;99440.09;10459399;28;20071;-70
2022/06/22 14:23:06;;;;;;;2.70;0.95;;;;;;;29.47;27.62;99443.41;10459470;28;20459;-70
2022/06/22 14:28:34;;;;;;;1.38;0.75;;;;;;;29.26;28.35;99440.56;10458241;28;20044;-70
2022/06/22 14:34:00;;;;;;;1.33;0.70;;;;;;;29.90;27.21;99443.66;10459009;28;20440;-73
2022/06/22 14:39:48;;;;;;;2.58;0.70;;;;;;;29.67;27.03;99427.53;10458073;28;20095;-71
2022/06/22 14:45:33;;;;;;;2.90;0.88;;;;;;;29.33;27.81;99419.88;10457349;28;20044;-72
2022/06/22 14:50:56;;;;;;;1.85;0.77;;;;;;;29.77;26.93;99421.81;10314641;28;20089;-70
2022/06/22 14:56:04;;;;;;;2.63;0.70;;;;;;;29.84;27.40;99418.16;10330187;28;20055;-70
2022/06/22 15:01:35;;;;;;;2.13;0.80;;;;;;;30.82;25.87;99410.59;10330650;28;20054;-72
2022/06/22 15:07:14;;;;;;;0.68;0.65;;;;;;;30.42;25.52;99409.31;10314254;28;20050;-72
2022/06/22 15:12:56;;;;;;;2.92;0.93;;;;;;;30.05;26.44;99398.41;10330355;28;20142;-70
2022/06/22 15:18:08;;;;;;;2.35;0.77;;;;;;;30.64;25.63;99403.69;10330920;28;20050;-71
2022/06/22 15:23:25;;;;;;;2.80;0.90;;;;;;;30.89;25.05;99404.16;10394644;28;20059;-72
2022/06/22 15:28:45;;;;;;;3.95;0.80;;;;;;;30.23;27.17;99402.59;10457165;28;20041;-73
2022/06/22 15:34:03;;;;;;;2.55;0.73;;;;;;;29.73;27.26;99407.78;10456335;28;20115;-70
2022/06/22 15:39:25;;;;;;;1.10;0.80;;;;;;;29.36;28.00;99409.53;10456584;28;20127;-70
2022/06/22 15:44:35;;;;;;;1.35;0.88;;;;;;;29.50;27.32;99397.03;10456015;28;20114;-70
2022/06/22 15:49:48;;;;;;;2.00;0.85;;;;;;;29.59;27.24;99405.94;10456131;28;20044;-70
2022/06/22 15:55:01;;;;;;;1.58;0.60;;;;;;;30.34;26.28;99402.13;10455884;28;20033;-71
2022/06/22 16:00:41;;;;;;;1.40;0.70;;;;;;;30.56;26.50;99403.81;10461210;28;20047;-72
2022/06/22 16:06:06;;;;;;;1.90;1.48;;;;;;;30.89;25.73;99406.88;10463606;28;20044;-71
2022/06/22 16:17:16;;;;;;;2.75;2.20;;;;;;;29.75;27.35;99400.34;10463098;28;20045;-72
2022/06/22 16:22:25;;;;;;;1.90;0.90;;;;;;;29.78;27.55;99401.81;10463534;28;20049;-71
2022/06/22 16:27:41;;;;;;;2.85;0.80;;;;;;;29.51;28.69;99401.41;10464058;28;20143;-71
2022/06/22 16:32:56;;;;;;;2.63;0.80;;;;;;;29.69;27.81;99394.81;10462794;28;20383;-71
2022/06/22 16:37:58;;;;;;;;;;;;;;;29.30;28.50;99395.88;10462803;28;20383;-71
2022/06/22 16:43:21;;;;;;;1.92;0.85;;;;;;;29.43;28.46;99393.38;10462457;28;19920;-69
2022/06/22 16:48:33;;;;;;;2.10;0.90;;;;;;;29.18;29.87;99400.09;10463403;28;20476;-70
2022/06/22 16:53:45;;;;;;;2.55;0.93;;;;;;;28.86;30.26;99397.44;10463178;28;20094;-70
2022/06/22 16:58:50;;;;;;;2.78;0.90;;;;;;;28.77;30.41;99392.28;10462203;28;20044;-70
2022/06/22 17:04:09;;;;;;;1.50;0.80;;;;;;;28.92;30.70;99404.00;10461338;28;20064;-70
2022/06/22 17:09:26;;;;;;;1.00;0.80;;;;;;;28.88;30.40;99411.63;10460930;28;20405;-71
2022/06/22 17:14:35;;;;;;;3.42;0.98;;;;;;;28.84;28.67;99406.75;10461263;28;20116;-71
2022/06/22 17:20:03;;;;;;;2.75;0.82;;;;;;;28.83;28.23;99403.22;10460585;28;20105;-71
2022/06/22 17:25:23;;;;;;;1.67;0.80;;;;;;;28.86;28.69;99410.94;10461047;28;20051;-70
2022/06/22 17:30:39;;;;;;;1.20;1.08;;;;;;;28.41;30.66;99407.22;10460864;28;20048;-70
2022/06/22 17:36:26;;;;;;;2.28;1.30;;;;;;;28.07;30.95;99418.38;10459899;28;20037;-71
2022/06/22 17:42:06;;;;;;;1.23;0.90;;;;;;;27.89;31.13;99423.16;10459075;28;20052;-70
2022/06/22 17:47:18;;;;;;;1.52;0.88;;;;;;;27.67;31.84;99424.75;10458780;28;20040;-71
2022/06/22 17:52:26;;;;;;;1.98;1.10;;;;;;;27.48;32.55;99425.97;10459456;28;20124;-70
2022/06/22 17:57:42;;;;;;;0.70;0.70;;;;;;;27.39;32.90;99424.31;10459751;28;20543;-71
2022/06/22 18:03:14;;;;;;;2.92;1.20;;;;;;;27.39;32.45;99427.84;10458767;28;20079;-70
2022/06/22 18:08:39;;;;;;;1.92;1.30;;;;;;;27.39;33.21;99427.84;10459191;28;20052;-70
2022/06/22 18:13:47;;;;;;;1.98;1.10;;;;;;;27.06;34.25;99424.31;10460223;28;20067;-70
2022/06/22 18:18:51;;;;;;;1.88;1.17;;;;;;;27.10;33.99;99427.56;10458853;28;20049;-70
2022/06/22 18:24:06;;;;;;;2.15;1.10;;;;;;;26.88;34.64;99434.44;10458650;28;20037;-71
2022/06/22 18:29:19;;;;;;;2.45;0.90;;;;;;;26.52;35.53;99436.56;10459132;28;20395;-71
2022/06/22 18:34:37;;;;;;;3.03;1.10;;;;;;;26.45;35.29;99433.69;10458033;28;20041;-71
2022/06/22 18:45:39;;;;;;;2.22;1.58;;;;;;;26.19;36.64;99449.94;10450750;28;20041;-71
2022/06/22 18:50:53;;;;;;;3.17;1.67;;;;;;;26.17;36.95;99455.50;10438491;28;20041;-70
2022/06/22 18:56:06;;;;;;;2.20;1.33;;;;;;;25.87;37.62;99456.03;10440807;28;20475;-70
2022/06/22 19:01:13;;;;;;;2.22;1.20;;;;;;;25.65;38.64;99454.69;10455964;28;20095;-70
2022/06/22 19:06:25;;;;;;;2.20;1.23;;;;;;;25.46;39.05;99458.47;10456763;28;20096;-70
2022/06/22 19:11:47;;;;;;;1.83;1.38;;;;;;;25.14;39.62;99462.56;10456230;28;20045;-70
2022/06/22 19:17:01;;;;;;;3.30;1.17;;;;;;;24.98;40.45;99461.59;10440746;28;20124;-70
2022/06/22 19:22:23;;;;;;;2.38;0.90;;;;;;;24.92;40.50;99465.72;10427025;28;20052;-71
2022/06/22 19:27:37;;;;;;;1.67;1.13;;;;;;;24.46;42.11;99466.78;10415028;28;20491;-71
2022/06/22 19:32:40;;;;;;;1.80;1.27;;;;;;;24.35;42.02;99462.44;10419670;28;20037;-71
2022/06/22 19:37:51;;;;;;;1.48;1.10;;;;;;;24.33;41.42;99480.53;10423937;28;20041;-70
2022/06/22 19:43:22;;;;;;;2.55;1.40;;;;;;;24.22;39.64;99484.28;10423499;28;20038;-70
2022/06/22 19:48:26;;;;;;;3.88;1.40;;;;;;;24.08;39.91;99493.69;10395987;28;20060;-70
2022/06/22 19:53:46;;;;;;;2.60;1.27;;;;;;;23.96;39.41;99494.00;10423032;28;20116;-70
2022/06/22 19:58:48;;;;;;;1.48;1.10;;;;;;;23.98;39.16;99500.91;10421461;28;20045;-70
2022/06/22 20:04:15;;;;;;;1.95;1.30;;;;;;;23.76;39.56;99517.38;10422293;28;20060;-70
2022/06/22 20:09:59;;;;;;;1.10;0.98;;;;;;;23.75;39.08;99521.06;10421487;28;20050;-71
2022/06/22 20:15:08;;;;;;;2.00;1.10;;;;;;;23.66;39.32;99528.97;10413979;28;20096;-70
2022/06/22 20:20:09;;;;;;;0.80;0.80;;;;;;;23.57;39.25;99531.66;10421591;28;20042;-70
2022/06/22 20:25:54;;;;;;;1.65;1.10;;;;;;;23.52;38.79;99545.50;10421435;28;20083;-70
2022/06/22 20:31:09;;;;;;;2.83;1.40;;;;;;;23.35;39.29;99541.69;10420121;28;20402;-71
2022/06/22 20:36:24;;;;;;;2.55;1.70;;;;;;;23.03;39.88;99559.91;10421338;28;20041;-71
2022/06/22 20:41:55;;;;;;;1.38;1.15;;;;;;;23.04;39.73;99556.22;10421052;28;20132;-71
2022/06/22 20:47:30;;;;;;;3.55;1.02;;;;;;;22.89;39.87;99569.16;10423094;28;20045;-71
2022/06/22 20:52:36;;;;;;;1.23;0.95;;;;;;;22.66;40.72;99571.22;10421238;28;20076;-71
2022/06/22 20:57:59;;;;;;;3.08;1.50;;;;;;;22.62;41.61;99573.34;10420818;28;20044;-70
2022/06/22 21:03:01;;;;;;;2.92;1.15;;;;;;;22.27;42.57;99583.63;10421165;28;20464;-69
2022/06/22 21:08:23;;;;;;;2.20;1.15;;;;;;;22.13;43.43;99583.03;10421241;28;20055;-71
2022/06/22 21:13:47;;;;;;;2.20;1.13;;;;;;;22.02;42.76;99590.25;10420244;28;20045;-71
2022/06/22 21:18:52;;;;;;;1.35;1.00;;;;;;;21.96;42.73;99590.75;10419064;28;20506;-71
2022/06/22 21:24:00;;;;;;;2.58;0.95;;;;;;;21.70;43.10;99595.69;10419589;28;20081;-71
2022/06/22 21:29:30;;;;;;;4.30;1.52;;;;;;;21.68;42.68;99598.47;10420404;28;20037;-71
2022/06/22 21:34:52;;;;;;;1.95;1.10;;;;;;;21.47;43.53;99600.28;10419664;28;20470;-70
2022/06/22 21:40:15;;;;;;;2.05;1.10;;;;;;;21.27;44.72;99607.28;10418924;28;20045;-70
2022/06/22 21:45:38;;;;;;;1.63;1.17;;;;;;;20.97;45.71;99608.81;10418661;28;20129;-70
2022/06/22 21:51:29;;;;;;;2.63;1.10;;;;;;;20.72;45.97;99614.44;10417239;28;20041;-70
2022/06/22 21:57:02;;;;;;;1.52;1.20;;;;;;;20.71;46.08;99618.94;10417893;28;20053;-70
2022/06/22 22:02:43;;;;;;;2.28;1.10;;;;;;;20.52;46.55;99619.56;10387879;28;20060;-69
2022/06/22 22:07:47;;;;;;;1.80;1.13;;;;;;;20.40;46.46;99621.34;10344349;28;20063;-71
2022/06/22 22:12:54;;;;;;;2.13;0.98;;;;;;;20.58;45.51;99624.41;10417534;28;20077;-69
2022/06/22 22:18:00;;;;;;;2.35;1.20;;;;;;;20.41;46.31;99631.06;10417778;28;20064;-69
2022/06/22 22:23:05;;;;;;;1.15;1.00;;;;;;;20.45;45.90;99639.66;10418431;28;20065;-70
2022/06/22 22:28:16;;;;;;;2.80;1.20;;;;;;;20.32;46.00;99633.59;10417236;28;20049;-71
2022/06/22 22:33:18;;;;;;;2.67;1.20;;;;;;;20.20;46.05;99638.09;10416893;28;20108;-70
2022/06/22 22:38:30;;;;;;;2.83;1.00;;;;;;;20.05;46.33;99637.44;10417192;28;20388;-70
2022/06/22 22:43:38;;;;;;;2.80;1.33;;;;;;;19.91;47.12;99635.00;10417526;28;20033;-70
2022/06/22 22:49:00;;;;;;;1.83;1.00;;;;;;;19.73;47.66;99629.25;10416617;28;20046;-70
2022/06/22 22:54:14;;;;;;;1.70;1.00;;;;;;;19.58;47.84;99622.38;10416048;28;20566;-69
2022/06/22 22:59:16;;;;;;;5.05;1.25;;;;;;;19.32;48.64;99621.69;10452231;22;20052;-69
2022/06/22 23:04:27;;;;;;;2.80;1.00;;;;;;;19.45;47.93;99624.28;10482971;28;20143;-69
2022/06/22 23:09:29;;;;;;;1.50;0.85;;;;;;;19.32;47.99;99627.00;10501643;28;20094;-69
2022/06/22 23:14:33;;;;;;;1.98;1.08;;;;;;;19.13;48.22;99619.53;10498925;28;20049;-69
2022/06/22 23:19:39;;;;;;;2.17;1.08;;;;;;;18.95;48.76;99623.53;10498152;28;20494;-69
2022/06/22 23:24:42;;;;;;;;;;;;;;;18.99;48.93;99617.00;10497139;28;20543;-68
2022/06/22 23:29:44;;;;;;;1.45;1.10;;;;;;;18.75;48.95;99617.84;10499381;28;19970;-69
2022/06/22 23:34:51;;;;;;;3.30;1.08;;;;;;;18.66;49.52;99618.47;10497965;28;20096;-69
2022/06/22 23:39:53;;;;;;;2.45;1.08;;;;;;;18.38;50.77;99609.81;10498066;28;20493;-69
2022/06/22 23:44:55;;;;;;;1.40;1.00;;;;;;;18.40;50.07;99610.53;10497197;28;20041;-69
2022/06/22 23:49:58;;;;;;;1.75;1.02;;;;;;;18.10;52.04;99607.34;10499634;28;20048;-69
2022/06/22 23:55:01;;;;;;;1.48;1.15;;;;;;;17.93;52.35;99615.66;10497325;28;20048;-69
